sensor_id;sensor_type;location;lat;lon;timestamp;temperature;humidity
65598;SHT31;52267;51.984;20.956;2023-11-19T00:01:46;1.21;88.74
65598;SHT31;52267;51.984;20.956;2023-11-19T00:04:13;1.23;88.80
65598;SHT31;52267;51.984;20.956;2023-11-19T00:06:41;1.23;88.80
65598;SHT31;52267;51.984;20.956;2023-11-19T00:09:08;1.19;88.76
65598;SHT31;52267;51.984;20.956;2023-11-19T00:11:35;1.15;88.79
65598;SHT31;52267;51.984;20.956;2023-11-19T00:14:02;1.17;88.79
65598;SHT31;52267;51.984;20.956;2023-11-19T00:16:30;1.20;88.80
65598;SHT31;52267;51.984;20.956;2023-11-19T00:18:58;1.21;88.75
65598;SHT31;52267;51.984;20.956;2023-11-19T00:21:26;1.22;88.75
65598;SHT31;52267;51.984;20.956;2023-11-19T00:23:55;1.25;88.72
65598;SHT31;52267;51.984;20.956;2023-11-19T00:26:24;1.25;88.70
65598;SHT31;52267;51.984;20.956;2023-11-19T00:28:52;1.22;88.69
65598;SHT31;52267;51.984;20.956;2023-11-19T00:31:19;1.21;88.70
65598;SHT31;52267;51.984;20.956;2023-11-19T00:33:46;1.22;88.70
65598;SHT31;52267;51.984;20.956;2023-11-19T00:36:13;1.23;88.70
65598;SHT31;52267;51.984;20.956;2023-11-19T00:38:40;1.27;88.69
65598;SHT31;52267;51.984;20.956;2023-11-19T00:41:07;1.29;88.60
65598;SHT31;52267;51.984;20.956;2023-11-19T00:43:34;1.26;88.60
65598;SHT31;52267;51.984;20.956;2023-11-19T00:46:01;1.26;88.60
65598;SHT31;52267;51.984;20.956;2023-11-19T00:48:33;1.23;88.58
65598;SHT31;52267;51.984;20.956;2023-11-19T00:51:00;1.22;88.60
65598;SHT31;52267;51.984;20.956;2023-11-19T00:53:27;1.25;88.60
65598;SHT31;52267;51.984;20.956;2023-11-19T00:55:54;1.27;88.60
65598;SHT31;52267;51.984;20.956;2023-11-19T00:58:21;1.28;88.58
65598;SHT31;52267;51.984;20.956;2023-11-19T01:00:48;1.27;88.53
65598;SHT31;52267;51.984;20.956;2023-11-19T01:03:15;1.21;88.53
65598;SHT31;52267;51.984;20.956;2023-11-19T01:05:42;1.16;88.60
65598;SHT31;52267;51.984;20.956;2023-11-19T01:08:10;1.08;88.64
65598;SHT31;52267;51.984;20.956;2023-11-19T01:10:37;1.06;88.73
65598;SHT31;52267;51.984;20.956;2023-11-19T01:13:04;1.05;88.80
65598;SHT31;52267;51.984;20.956;2023-11-19T01:15:32;1.04;88.80
65598;SHT31;52267;51.984;20.956;2023-11-19T01:17:59;1.03;88.80
65598;SHT31;52267;51.984;20.956;2023-11-19T01:20:28;1.03;88.80
65598;SHT31;52267;51.984;20.956;2023-11-19T01:22:55;1.00;88.81
65598;SHT31;52267;51.984;20.956;2023-11-19T01:25:22;0.99;88.84
65598;SHT31;52267;51.984;20.956;2023-11-19T01:27:49;0.97;88.90
65598;SHT31;52267;51.984;20.956;2023-11-19T01:30:16;0.99;88.91
65598;SHT31;52267;51.984;20.956;2023-11-19T01:32:43;0.99;88.91
65598;SHT31;52267;51.984;20.956;2023-11-19T01:35:10;1.01;88.90
65598;SHT31;52267;51.984;20.956;2023-11-19T01:37:37;1.03;88.90
65598;SHT31;52267;51.984;20.956;2023-11-19T01:40:04;1.04;88.90
65598;SHT31;52267;51.984;20.956;2023-11-19T01:42:37;1.04;88.95
65598;SHT31;52267;51.984;20.956;2023-11-19T01:45:05;1.04;88.99
65598;SHT31;52267;51.984;20.956;2023-11-19T01:47:34;1.05;89.00
65598;SHT31;52267;51.984;20.956;2023-11-19T01:50:02;1.03;89.01
65598;SHT31;52267;51.984;20.956;2023-11-19T01:52:34;1.01;89.06
65598;SHT31;52267;51.984;20.956;2023-11-19T01:55:05;0.95;89.09
65598;SHT31;52267;51.984;20.956;2023-11-19T01:57:35;0.96;89.10
65598;SHT31;52267;51.984;20.956;2023-11-19T02:00:04;0.98;89.10
65598;SHT31;52267;51.984;20.956;2023-11-19T02:02:38;0.93;89.10
65598;SHT31;52267;51.984;20.956;2023-11-19T02:05:06;0.90;89.15
65598;SHT31;52267;51.984;20.956;2023-11-19T02:07:33;0.93;89.20
65598;SHT31;52267;51.984;20.956;2023-11-19T02:10:00;0.93;89.15
65598;SHT31;52267;51.984;20.956;2023-11-19T02:12:28;0.91;89.17
65598;SHT31;52267;51.984;20.956;2023-11-19T02:14:55;0.84;89.27
65598;SHT31;52267;51.984;20.956;2023-11-19T02:17:29;0.87;89.30
65598;SHT31;52267;51.984;20.956;2023-11-19T02:20:00;0.91;89.31
65598;SHT31;52267;51.984;20.956;2023-11-19T02:22:27;0.91;89.30
65598;SHT31;52267;51.984;20.956;2023-11-19T02:24:57;0.90;89.33
65598;SHT31;52267;51.984;20.956;2023-11-19T02:30:14;0.87;89.38
65598;SHT31;52267;51.984;20.956;2023-11-19T02:32:42;0.86;89.30
65598;SHT31;52267;51.984;20.956;2023-11-19T02:35:09;0.81;89.34
65598;SHT31;52267;51.984;20.956;2023-11-19T02:37:38;0.83;89.40
65598;SHT31;52267;51.984;20.956;2023-11-19T02:40:05;0.87;89.39
65598;SHT31;52267;51.984;20.956;2023-11-19T02:42:35;0.88;89.34
65598;SHT31;52267;51.984;20.956;2023-11-19T02:45:02;0.88;89.38
65598;SHT31;52267;51.984;20.956;2023-11-19T02:47:35;0.88;89.40
65598;SHT31;52267;51.984;20.956;2023-11-19T02:50:02;0.85;89.46
65598;SHT31;52267;51.984;20.956;2023-11-19T02:52:30;0.84;89.49
65598;SHT31;52267;51.984;20.956;2023-11-19T02:55:01;0.86;89.50
65598;SHT31;52267;51.984;20.956;2023-11-19T02:57:30;0.89;89.49
65598;SHT31;52267;51.984;20.956;2023-11-19T02:59:58;0.89;89.47
65598;SHT31;52267;51.984;20.956;2023-11-19T03:02:26;0.92;89.46
65598;SHT31;52267;51.984;20.956;2023-11-19T03:05:00;0.97;89.42
65598;SHT31;52267;51.984;20.956;2023-11-19T03:07:27;1.00;89.40
65598;SHT31;52267;51.984;20.956;2023-11-19T03:09:54;1.00;89.33
65598;SHT31;52267;51.984;20.956;2023-11-19T03:12:21;0.90;89.33
65598;SHT31;52267;51.984;20.956;2023-11-19T03:14:48;0.90;89.39
65598;SHT31;52267;51.984;20.956;2023-11-19T03:17:17;0.88;89.43
65598;SHT31;52267;51.984;20.956;2023-11-19T03:19:45;0.87;89.44
65598;SHT31;52267;51.984;20.956;2023-11-19T03:22:12;0.90;89.46
65598;SHT31;52267;51.984;20.956;2023-11-19T03:24:39;0.93;89.44
65598;SHT31;52267;51.984;20.956;2023-11-19T03:27:06;0.93;89.48
65598;SHT31;52267;51.984;20.956;2023-11-19T03:29:33;0.87;89.56
65598;SHT31;52267;51.984;20.956;2023-11-19T03:32:00;0.87;89.53
65598;SHT31;52267;51.984;20.956;2023-11-19T03:34:27;0.85;89.56
65598;SHT31;52267;51.984;20.956;2023-11-19T03:36:53;0.87;89.59
65598;SHT31;52267;51.984;20.956;2023-11-19T03:39:22;0.86;89.66
65598;SHT31;52267;51.984;20.956;2023-11-19T03:41:51;0.84;89.66
65598;SHT31;52267;51.984;20.956;2023-11-19T03:44:18;0.88;89.67
65598;SHT31;52267;51.984;20.956;2023-11-19T03:46:45;0.91;89.64
65598;SHT31;52267;51.984;20.956;2023-11-19T03:49:13;0.91;89.70
65598;SHT31;52267;51.984;20.956;2023-11-19T03:51:40;0.93;89.63
65598;SHT31;52267;51.984;20.956;2023-11-19T03:54:07;0.94;89.60
65598;SHT31;52267;51.984;20.956;2023-11-19T03:56:34;0.94;89.60
65598;SHT31;52267;51.984;20.956;2023-11-19T03:59:01;0.92;89.66
65598;SHT31;52267;51.984;20.956;2023-11-19T04:01:29;0.91;89.65
65598;SHT31;52267;51.984;20.956;2023-11-19T04:03:56;0.92;89.70
65598;SHT31;52267;51.984;20.956;2023-11-19T04:06:23;0.94;89.70
65598;SHT31;52267;51.984;20.956;2023-11-19T04:08:50;0.95;89.69
65598;SHT31;52267;51.984;20.956;2023-11-19T04:11:17;0.98;89.69
65598;SHT31;52267;51.984;20.956;2023-11-19T04:13:44;0.98;89.66
65598;SHT31;52267;51.984;20.956;2023-11-19T04:16:11;0.97;89.70
65598;SHT31;52267;51.984;20.956;2023-11-19T04:18:38;0.99;89.70
65598;SHT31;52267;51.984;20.956;2023-11-19T04:21:05;0.98;89.70
65598;SHT31;52267;51.984;20.956;2023-11-19T04:23:34;0.97;89.70
65598;SHT31;52267;51.984;20.956;2023-11-19T04:26:04;0.97;89.70
65598;SHT31;52267;51.984;20.956;2023-11-19T04:28:31;0.96;89.70
65598;SHT31;52267;51.984;20.956;2023-11-19T04:30:58;0.94;89.72
65598;SHT31;52267;51.984;20.956;2023-11-19T04:33:25;0.93;89.75
65598;SHT31;52267;51.984;20.956;2023-11-19T04:35:52;0.93;89.78
65598;SHT31;52267;51.984;20.956;2023-11-19T04:38:19;0.96;89.73
65598;SHT31;52267;51.984;20.956;2023-11-19T04:40:46;0.96;89.73
65598;SHT31;52267;51.984;20.956;2023-11-19T04:43:13;0.96;89.70
65598;SHT31;52267;51.984;20.956;2023-11-19T04:45:40;0.95;89.71
65598;SHT31;52267;51.984;20.956;2023-11-19T04:48:07;0.97;89.70
65598;SHT31;52267;51.984;20.956;2023-11-19T04:50:35;0.96;89.69
65598;SHT31;52267;51.984;20.956;2023-11-19T04:53:02;0.96;89.70
65598;SHT31;52267;51.984;20.956;2023-11-19T04:55:29;0.97;89.70
65598;SHT31;52267;51.984;20.956;2023-11-19T04:57:56;0.97;89.61
65598;SHT31;52267;51.984;20.956;2023-11-19T05:00:26;0.96;89.61
65598;SHT31;52267;51.984;20.956;2023-11-19T05:02:53;0.96;89.57
65598;SHT31;52267;51.984;20.956;2023-11-19T05:05:21;0.94;89.53
65598;SHT31;52267;51.984;20.956;2023-11-19T05:07:48;0.92;89.60
65598;SHT31;52267;51.984;20.956;2023-11-19T05:10:15;0.94;89.59
65598;SHT31;52267;51.984;20.956;2023-11-19T05:12:42;0.91;89.56
65598;SHT31;52267;51.984;20.956;2023-11-19T05:15:09;0.87;89.50
65598;SHT31;52267;51.984;20.956;2023-11-19T05:17:38;0.82;89.40
65598;SHT31;52267;51.984;20.956;2023-11-19T05:20:05;0.79;89.40
65598;SHT31;52267;51.984;20.956;2023-11-19T05:22:40;0.79;89.40
65598;SHT31;52267;51.984;20.956;2023-11-19T05:25:08;0.82;89.42
65598;SHT31;52267;51.984;20.956;2023-11-19T05:27:37;0.82;89.47
65598;SHT31;52267;51.984;20.956;2023-11-19T05:30:04;0.80;89.47
65598;SHT31;52267;51.984;20.956;2023-11-19T05:32:36;0.77;89.46
65598;SHT31;52267;51.984;20.956;2023-11-19T05:35:04;0.76;89.38
65598;SHT31;52267;51.984;20.956;2023-11-19T05:37:31;0.70;89.19
65598;SHT31;52267;51.984;20.956;2023-11-19T05:39:58;0.67;89.13
65598;SHT31;52267;51.984;20.956;2023-11-19T05:42:26;0.66;89.10
65598;SHT31;52267;51.984;20.956;2023-11-19T05:44:53;0.62;89.10
65598;SHT31;52267;51.984;20.956;2023-11-19T05:47:21;0.59;89.10
65598;SHT31;52267;51.984;20.956;2023-11-19T05:49:47;0.54;89.16
65598;SHT31;52267;51.984;20.956;2023-11-19T05:52:15;0.50;89.21
65598;SHT31;52267;51.984;20.956;2023-11-19T05:54:42;0.48;89.17
65598;SHT31;52267;51.984;20.956;2023-11-19T05:57:09;0.48;89.18
65598;SHT31;52267;51.984;20.956;2023-11-19T05:59:36;0.49;89.19
65598;SHT31;52267;51.984;20.956;2023-11-19T06:02:04;0.49;89.22
65598;SHT31;52267;51.984;20.956;2023-11-19T06:04:31;0.50;89.30
65598;SHT31;52267;51.984;20.956;2023-11-19T06:06:58;0.49;89.21
65598;SHT31;52267;51.984;20.956;2023-11-19T06:09:25;0.50;89.21
65598;SHT31;52267;51.984;20.956;2023-11-19T06:11:52;0.55;89.20
65598;SHT31;52267;51.984;20.956;2023-11-19T06:14:19;0.56;89.23
65598;SHT31;52267;51.984;20.956;2023-11-19T06:16:46;0.57;89.30
65598;SHT31;52267;51.984;20.956;2023-11-19T06:19:13;0.60;89.30
65598;SHT31;52267;51.984;20.956;2023-11-19T06:21:40;0.63;89.30
65598;SHT31;52267;51.984;20.956;2023-11-19T06:24:08;0.63;89.30
65598;SHT31;52267;51.984;20.956;2023-11-19T06:26:35;0.63;89.31
65598;SHT31;52267;51.984;20.956;2023-11-19T06:29:02;0.66;89.35
65598;SHT31;52267;51.984;20.956;2023-11-19T06:31:29;0.67;89.32
65598;SHT31;52267;51.984;20.956;2023-11-19T06:33:56;0.66;89.38
65598;SHT31;52267;51.984;20.956;2023-11-19T06:36:23;0.65;89.40
65598;SHT31;52267;51.984;20.956;2023-11-19T06:38:50;0.62;89.40
65598;SHT31;52267;51.984;20.956;2023-11-19T06:41:17;0.60;89.42
65598;SHT31;52267;51.984;20.956;2023-11-19T06:43:44;0.63;89.48
65598;SHT31;52267;51.984;20.956;2023-11-19T06:46:14;0.69;89.50
65598;SHT31;52267;51.984;20.956;2023-11-19T06:48:43;0.71;89.50
65598;SHT31;52267;51.984;20.956;2023-11-19T06:51:11;0.72;89.50
65598;SHT31;52267;51.984;20.956;2023-11-19T06:53:39;0.72;89.50
65598;SHT31;52267;51.984;20.956;2023-11-19T06:56:17;0.74;89.50
65598;SHT31;52267;51.984;20.956;2023-11-19T06:58:46;0.74;89.54
65598;SHT31;52267;51.984;20.956;2023-11-19T07:01:14;0.75;89.57
65598;SHT31;52267;51.984;20.956;2023-11-19T07:03:42;0.75;89.50
65598;SHT31;52267;51.984;20.956;2023-11-19T07:06:10;0.75;89.50
65598;SHT31;52267;51.984;20.956;2023-11-19T07:08:43;0.76;89.50
65598;SHT31;52267;51.984;20.956;2023-11-19T07:11:13;0.78;89.50
65598;SHT31;52267;51.984;20.956;2023-11-19T07:13:42;0.81;89.50
65598;SHT31;52267;51.984;20.956;2023-11-19T07:16:10;0.83;89.46
65598;SHT31;52267;51.984;20.956;2023-11-19T07:18:37;0.87;89.50
65598;SHT31;52267;51.984;20.956;2023-11-19T07:21:04;0.88;89.50
65598;SHT31;52267;51.984;20.956;2023-11-19T07:23:32;0.90;89.50
65598;SHT31;52267;51.984;20.956;2023-11-19T07:26:00;0.92;89.48
65598;SHT31;52267;51.984;20.956;2023-11-19T07:28:28;0.91;89.45
65598;SHT31;52267;51.984;20.956;2023-11-19T07:30:55;0.94;89.50
65598;SHT31;52267;51.984;20.956;2023-11-19T07:33:25;0.95;89.42
65598;SHT31;52267;51.984;20.956;2023-11-19T07:35:52;0.98;89.42
65598;SHT31;52267;51.984;20.956;2023-11-19T07:38:19;0.99;89.48
65598;SHT31;52267;51.984;20.956;2023-11-19T07:40:46;1.04;89.47
65598;SHT31;52267;51.984;20.956;2023-11-19T07:43:14;1.08;89.42
65598;SHT31;52267;51.984;20.956;2023-11-19T07:45:41;1.10;89.42
65598;SHT31;52267;51.984;20.956;2023-11-19T07:48:11;1.13;89.46
65598;SHT31;52267;51.984;20.956;2023-11-19T07:50:39;1.17;89.41
65598;SHT31;52267;51.984;20.956;2023-11-19T07:53:09;1.21;89.40
65598;SHT31;52267;51.984;20.956;2023-11-19T07:55:36;1.24;89.37
65598;SHT31;52267;51.984;20.956;2023-11-19T07:58:03;1.27;89.31
65598;SHT31;52267;51.984;20.956;2023-11-19T08:00:31;1.30;89.31
65598;SHT31;52267;51.984;20.956;2023-11-19T08:02:58;1.31;89.29
65598;SHT31;52267;51.984;20.956;2023-11-19T08:05:25;1.35;89.22
65598;SHT31;52267;51.984;20.956;2023-11-19T08:07:52;1.41;89.20
65598;SHT31;52267;51.984;20.956;2023-11-19T08:10:19;1.41;89.12
65598;SHT31;52267;51.984;20.956;2023-11-19T08:12:46;1.42;89.08
65598;SHT31;52267;51.984;20.956;2023-11-19T08:15:14;1.46;89.10
65598;SHT31;52267;51.984;20.956;2023-11-19T08:17:42;1.50;89.10
65598;SHT31;52267;51.984;20.956;2023-11-19T08:20:09;1.51;89.02
65598;SHT31;52267;51.984;20.956;2023-11-19T08:22:37;1.50;89.00
65598;SHT31;52267;51.984;20.956;2023-11-19T08:25:05;1.50;89.02
65598;SHT31;52267;51.984;20.956;2023-11-19T08:27:32;1.50;89.05
65598;SHT31;52267;51.984;20.956;2023-11-19T08:29:59;1.46;89.00
65598;SHT31;52267;51.984;20.956;2023-11-19T08:32:26;1.42;89.00
65598;SHT31;52267;51.984;20.956;2023-11-19T08:34:54;1.39;89.02
65598;SHT31;52267;51.984;20.956;2023-11-19T08:37:21;1.36;89.06
65598;SHT31;52267;51.984;20.956;2023-11-19T08:39:48;1.42;89.10
65598;SHT31;52267;51.984;20.956;2023-11-19T08:42:17;1.47;89.06
65598;SHT31;52267;51.984;20.956;2023-11-19T08:44:44;1.51;88.99
65598;SHT31;52267;51.984;20.956;2023-11-19T08:47:16;1.53;88.91
65598;SHT31;52267;51.984;20.956;2023-11-19T08:49:51;1.54;88.96
65598;SHT31;52267;51.984;20.956;2023-11-19T08:52:19;1.55;88.98
65598;SHT31;52267;51.984;20.956;2023-11-19T08:54:46;1.54;88.91
65598;SHT31;52267;51.984;20.956;2023-11-19T08:57:13;1.61;88.93
65598;SHT31;52267;51.984;20.956;2023-11-19T08:59:40;1.65;88.89
65598;SHT31;52267;51.984;20.956;2023-11-19T09:02:07;1.64;88.82
65598;SHT31;52267;51.984;20.956;2023-11-19T09:04:35;1.59;88.75
65598;SHT31;52267;51.984;20.956;2023-11-19T09:07:02;1.55;88.70
65598;SHT31;52267;51.984;20.956;2023-11-19T09:09:30;1.56;88.79
65598;SHT31;52267;51.984;20.956;2023-11-19T09:11:57;1.55;88.83
65598;SHT31;52267;51.984;20.956;2023-11-19T09:14:24;1.54;88.89
65598;SHT31;52267;51.984;20.956;2023-11-19T09:16:52;1.48;88.86
65598;SHT31;52267;51.984;20.956;2023-11-19T09:19:19;1.47;88.89
65598;SHT31;52267;51.984;20.956;2023-11-19T09:21:47;1.44;88.92
65598;SHT31;52267;51.984;20.956;2023-11-19T09:24:15;1.41;88.98
65598;SHT31;52267;51.984;20.956;2023-11-19T09:26:42;1.42;88.98
65598;SHT31;52267;51.984;20.956;2023-11-19T09:29:10;1.42;88.96
65598;SHT31;52267;51.984;20.956;2023-11-19T09:31:38;1.39;89.01
65598;SHT31;52267;51.984;20.956;2023-11-19T09:34:05;1.39;89.10
65598;SHT31;52267;51.984;20.956;2023-11-19T09:36:32;1.41;89.08
65598;SHT31;52267;51.984;20.956;2023-11-19T09:39:00;1.42;88.98
65598;SHT31;52267;51.984;20.956;2023-11-19T09:41:29;1.40;88.92
65598;SHT31;52267;51.984;20.956;2023-11-19T09:43:57;1.38;89.07
65598;SHT31;52267;51.984;20.956;2023-11-19T09:46:24;1.40;89.11
65598;SHT31;52267;51.984;20.956;2023-11-19T09:48:53;1.46;89.11
65598;SHT31;52267;51.984;20.956;2023-11-19T09:51:23;1.46;89.11
65598;SHT31;52267;51.984;20.956;2023-11-19T09:53:51;1.51;89.07
65598;SHT31;52267;51.984;20.956;2023-11-19T09:56:18;1.50;89.00
65598;SHT31;52267;51.984;20.956;2023-11-19T09:58:45;1.50;89.05
65598;SHT31;52267;51.984;20.956;2023-11-19T10:01:13;1.49;89.07
65598;SHT31;52267;51.984;20.956;2023-11-19T10:03:41;1.45;89.17
65598;SHT31;52267;51.984;20.956;2023-11-19T10:06:10;1.47;89.20
65598;SHT31;52267;51.984;20.956;2023-11-19T10:08:40;1.49;89.15
65598;SHT31;52267;51.984;20.956;2023-11-19T10:11:08;1.48;89.13
65598;SHT31;52267;51.984;20.956;2023-11-19T10:13:39;1.49;89.16
65598;SHT31;52267;51.984;20.956;2023-11-19T10:16:11;1.50;89.21
65598;SHT31;52267;51.984;20.956;2023-11-19T10:18:43;1.48;89.18
65598;SHT31;52267;51.984;20.956;2023-11-19T10:21:13;1.45;89.19
65598;SHT31;52267;51.984;20.956;2023-11-19T10:23:50;1.44;89.15
65598;SHT31;52267;51.984;20.956;2023-11-19T10:26:20;1.41;89.30
65598;SHT31;52267;51.984;20.956;2023-11-19T10:28:47;1.43;89.30
65598;SHT31;52267;51.984;20.956;2023-11-19T10:31:15;1.41;89.30
65598;SHT31;52267;51.984;20.956;2023-11-19T10:33:44;1.39;89.31
65598;SHT31;52267;51.984;20.956;2023-11-19T10:36:12;1.41;89.28
65598;SHT31;52267;51.984;20.956;2023-11-19T10:38:41;1.40;89.28
65598;SHT31;52267;51.984;20.956;2023-11-19T10:43:59;1.38;89.43
65598;SHT31;52267;51.984;20.956;2023-11-19T10:46:36;1.37;89.51
65598;SHT31;52267;51.984;20.956;2023-11-19T10:49:08;1.38;89.50
65598;SHT31;52267;51.984;20.956;2023-11-19T10:51:35;1.38;89.51
65598;SHT31;52267;51.984;20.956;2023-11-19T10:54:03;1.41;89.53
65598;SHT31;52267;51.984;20.956;2023-11-19T10:56:32;1.40;89.47
65598;SHT31;52267;51.984;20.956;2023-11-19T10:59:01;1.43;89.43
65598;SHT31;52267;51.984;20.956;2023-11-19T11:01:40;1.43;89.41
65598;SHT31;52267;51.984;20.956;2023-11-19T11:04:14;1.44;89.45
65598;SHT31;52267;51.984;20.956;2023-11-19T11:06:54;1.48;89.47
65598;SHT31;52267;51.984;20.956;2023-11-19T11:09:26;1.52;89.38
65598;SHT31;52267;51.984;20.956;2023-11-19T11:11:54;1.55;89.41
65598;SHT31;52267;51.984;20.956;2023-11-19T11:14:23;1.56;89.50
65598;SHT31;52267;51.984;20.956;2023-11-19T11:16:51;1.60;89.51
65598;SHT31;52267;51.984;20.956;2023-11-19T11:19:20;1.60;89.50
65598;SHT31;52267;51.984;20.956;2023-11-19T11:21:50;1.60;89.49
65598;SHT31;52267;51.984;20.956;2023-11-19T11:24:27;1.61;89.55
65598;SHT31;52267;51.984;20.956;2023-11-19T11:36:04;1.61;89.53
65598;SHT31;52267;51.984;20.956;2023-11-19T11:38:21;1.63;89.50
65598;SHT31;52267;51.984;20.956;2023-11-19T11:43:57;1.61;89.50
65598;SHT31;52267;51.984;20.956;2023-11-19T11:49:04;1.60;89.49
65598;SHT31;52267;51.984;20.956;2023-11-19T11:57:00;1.57;89.69
65598;SHT31;52267;51.984;20.956;2023-11-19T11:59:42;1.58;89.69
65598;SHT31;52267;51.984;20.956;2023-11-19T12:02:15;1.57;89.69
65598;SHT31;52267;51.984;20.956;2023-11-19T12:04:50;1.55;89.74
65598;SHT31;52267;51.984;20.956;2023-11-19T12:07:19;1.53;89.78
65598;SHT31;52267;51.984;20.956;2023-11-19T12:09:52;1.53;89.80
65598;SHT31;52267;51.984;20.956;2023-11-19T12:12:34;1.52;89.81
65598;SHT31;52267;51.984;20.956;2023-11-19T12:15:05;1.51;89.84
65598;SHT31;52267;51.984;20.956;2023-11-19T12:17:43;1.51;89.85
65598;SHT31;52267;51.984;20.956;2023-11-19T12:20:18;1.49;89.83
65598;SHT31;52267;51.984;20.956;2023-11-19T12:22:47;1.52;89.84
65598;SHT31;52267;51.984;20.956;2023-11-19T12:25:16;1.51;89.88
65598;SHT31;52267;51.984;20.956;2023-11-19T12:27:46;1.48;89.88
65598;SHT31;52267;51.984;20.956;2023-11-19T12:30:28;1.47;89.89
65598;SHT31;52267;51.984;20.956;2023-11-19T12:32:56;1.45;89.92
65598;SHT31;52267;51.984;20.956;2023-11-19T12:35:23;1.45;89.84
65598;SHT31;52267;51.984;20.956;2023-11-19T12:37:51;1.44;89.80
65598;SHT31;52267;51.984;20.956;2023-11-19T12:40:23;1.43;89.81
65598;SHT31;52267;51.984;20.956;2023-11-19T12:42:52;1.42;89.69
65598;SHT31;52267;51.984;20.956;2023-11-19T12:45:21;1.41;89.63
65598;SHT31;52267;51.984;20.956;2023-11-19T12:47:50;1.42;89.64
65598;SHT31;52267;51.984;20.956;2023-11-19T12:53:46;1.38;89.65
65598;SHT31;52267;51.984;20.956;2023-11-19T12:56:22;1.38;89.81
65598;SHT31;52267;51.984;20.956;2023-11-19T12:58:49;1.39;89.77
65598;SHT31;52267;51.984;20.956;2023-11-19T13:01:17;1.42;89.76
65598;SHT31;52267;51.984;20.956;2023-11-19T13:03:47;1.41;89.86
65598;SHT31;52267;51.984;20.956;2023-11-19T13:06:18;1.42;89.92
65598;SHT31;52267;51.984;20.956;2023-11-19T13:08:48;1.40;89.93
65598;SHT31;52267;51.984;20.956;2023-11-19T13:11:40;1.36;90.00
65598;SHT31;52267;51.984;20.956;2023-11-19T13:14:07;1.36;90.03
65598;SHT31;52267;51.984;20.956;2023-11-19T13:16:38;1.34;90.06
65598;SHT31;52267;51.984;20.956;2023-11-19T13:19:05;1.33;90.08
65598;SHT31;52267;51.984;20.956;2023-11-19T13:21:32;1.32;90.09
65598;SHT31;52267;51.984;20.956;2023-11-19T13:24:00;1.33;90.10
65598;SHT31;52267;51.984;20.956;2023-11-19T13:26:28;1.31;90.12
65598;SHT31;52267;51.984;20.956;2023-11-19T13:28:55;1.32;90.10
65598;SHT31;52267;51.984;20.956;2023-11-19T13:31:22;1.28;90.19
65598;SHT31;52267;51.984;20.956;2023-11-19T13:33:49;1.27;90.17
65598;SHT31;52267;51.984;20.956;2023-11-19T13:36:17;1.25;90.34
65598;SHT31;52267;51.984;20.956;2023-11-19T13:38:44;1.24;90.44
65598;SHT31;52267;51.984;20.956;2023-11-19T13:41:12;1.24;90.39
65598;SHT31;52267;51.984;20.956;2023-11-19T13:43:40;1.24;90.48
65598;SHT31;52267;51.984;20.956;2023-11-19T13:46:07;1.22;90.53
65598;SHT31;52267;51.984;20.956;2023-11-19T13:48:37;1.21;90.47
65598;SHT31;52267;51.984;20.956;2023-11-19T13:51:05;1.21;90.54
65598;SHT31;52267;51.984;20.956;2023-11-19T13:53:33;1.21;90.55
65598;SHT31;52267;51.984;20.956;2023-11-19T13:56:00;1.20;90.57
65598;SHT31;52267;51.984;20.956;2023-11-19T13:58:28;1.19;90.71
65598;SHT31;52267;51.984;20.956;2023-11-19T14:00:55;1.18;90.77
65598;SHT31;52267;51.984;20.956;2023-11-19T14:03:32;1.18;90.80
65598;SHT31;52267;51.984;20.956;2023-11-19T14:06:00;1.17;90.90
65598;SHT31;52267;51.984;20.956;2023-11-19T14:08:28;1.15;91.07
65598;SHT31;52267;51.984;20.956;2023-11-19T14:10:55;1.14;91.25
65598;SHT31;52267;51.984;20.956;2023-11-19T14:13:32;1.14;91.12
65598;SHT31;52267;51.984;20.956;2023-11-19T14:15:59;1.15;91.14
65598;SHT31;52267;51.984;20.956;2023-11-19T14:18:27;1.13;90.99
65598;SHT31;52267;51.984;20.956;2023-11-19T14:20:54;1.14;90.98
65598;SHT31;52267;51.984;20.956;2023-11-19T14:23:21;1.10;91.18
65598;SHT31;52267;51.984;20.956;2023-11-19T14:25:49;1.10;91.16
65598;SHT31;52267;51.984;20.956;2023-11-19T14:28:16;1.09;91.11
65598;SHT31;52267;51.984;20.956;2023-11-19T14:30:44;1.07;91.23
65598;SHT31;52267;51.984;20.956;2023-11-19T14:33:12;1.06;91.31
65598;SHT31;52267;51.984;20.956;2023-11-19T14:35:39;1.04;91.47
65598;SHT31;52267;51.984;20.956;2023-11-19T14:38:06;1.01;91.48
65598;SHT31;52267;51.984;20.956;2023-11-19T14:40:36;1.01;91.51
65598;SHT31;52267;51.984;20.956;2023-11-19T14:43:03;1.02;91.37
65598;SHT31;52267;51.984;20.956;2023-11-19T14:45:31;0.99;91.55
65598;SHT31;52267;51.984;20.956;2023-11-19T14:47:58;0.98;91.67
65598;SHT31;52267;51.984;20.956;2023-11-19T14:50:26;0.98;91.68
65598;SHT31;52267;51.984;20.956;2023-11-19T14:52:55;0.98;91.57
65598;SHT31;52267;51.984;20.956;2023-11-19T14:55:22;0.98;91.62
65598;SHT31;52267;51.984;20.956;2023-11-19T14:57:49;0.98;91.62
65598;SHT31;52267;51.984;20.956;2023-11-19T15:00:18;0.97;91.57
65598;SHT31;52267;51.984;20.956;2023-11-19T15:02:45;0.95;91.36
65598;SHT31;52267;51.984;20.956;2023-11-19T15:05:13;0.94;91.64
65598;SHT31;52267;51.984;20.956;2023-11-19T15:07:41;0.93;91.74
65598;SHT31;52267;51.984;20.956;2023-11-19T15:10:09;0.92;91.79
65598;SHT31;52267;51.984;20.956;2023-11-19T15:12:38;0.92;91.88
65598;SHT31;52267;51.984;20.956;2023-11-19T15:15:09;0.90;91.90
65598;SHT31;52267;51.984;20.956;2023-11-19T15:17:43;0.89;91.83
65598;SHT31;52267;51.984;20.956;2023-11-19T15:20:13;0.88;91.99
65598;SHT31;52267;51.984;20.956;2023-11-19T15:22:46;0.87;92.08
65598;SHT31;52267;51.984;20.956;2023-11-19T15:25:15;0.86;92.22
65598;SHT31;52267;51.984;20.956;2023-11-19T15:27:47;0.86;92.31
65598;SHT31;52267;51.984;20.956;2023-11-19T15:30:17;0.86;92.32
65598;SHT31;52267;51.984;20.956;2023-11-19T15:32:45;0.85;92.36
65598;SHT31;52267;51.984;20.956;2023-11-19T15:35:13;0.85;92.08
65598;SHT31;52267;51.984;20.956;2023-11-19T15:37:41;0.85;92.12
65598;SHT31;52267;51.984;20.956;2023-11-19T15:40:10;0.87;91.79
65598;SHT31;52267;51.984;20.956;2023-11-19T15:42:40;0.88;91.60
65598;SHT31;52267;51.984;20.956;2023-11-19T15:45:09;0.89;91.71
65598;SHT31;52267;51.984;20.956;2023-11-19T15:47:38;0.88;91.70
65598;SHT31;52267;51.984;20.956;2023-11-19T15:50:06;0.89;91.73
65598;SHT31;52267;51.984;20.956;2023-11-19T15:52:36;0.89;91.80
65598;SHT31;52267;51.984;20.956;2023-11-19T15:55:04;0.91;91.71
65598;SHT31;52267;51.984;20.956;2023-11-19T15:57:32;0.90;91.68
65598;SHT31;52267;51.984;20.956;2023-11-19T15:59:59;0.89;91.94
65598;SHT31;52267;51.984;20.956;2023-11-19T16:02:28;0.89;91.90
65598;SHT31;52267;51.984;20.956;2023-11-19T16:04:56;0.90;91.74
65598;SHT31;52267;51.984;20.956;2023-11-19T16:07:23;0.90;91.88